createdAt,value
2023-11-04T00:00:06.893Z,9.10
2023-11-04T00:02:35.245Z,9.10
2023-11-04T00:05:05.126Z,9.10
2023-11-04T00:07:33.822Z,9.10
2023-11-04T00:10:02.677Z,9.20
2023-11-04T00:12:31.141Z,9.20
2023-11-04T00:14:59.454Z,9.20
2023-11-04T00:17:28.084Z,9.10
2023-11-04T00:19:56.690Z,9.20
2023-11-04T00:22:26.329Z,9.20
2023-11-04T00:24:55.261Z,9.20
2023-11-04T00:27:23.845Z,9.20
2023-11-04T00:29:52.213Z,9.10
2023-11-04T00:32:21.057Z,9.20
2023-11-04T00:34:49.299Z,9.20
2023-11-04T00:37:19.772Z,9.20
2023-11-04T00:39:49.896Z,9.30
2023-11-04T00:42:18.293Z,9.30
2023-11-04T00:44:46.738Z,9.20
2023-11-04T00:47:15.041Z,9.20
2023-11-04T00:49:43.279Z,9.20
2023-11-04T00:52:11.585Z,9.20
2023-11-04T00:54:40.170Z,9.20
2023-11-04T00:57:10.670Z,9.10
2023-11-04T00:59:38.926Z,9.10
2023-11-04T01:02:07.184Z,9.10
2023-11-04T01:04:35.620Z,9.30
2023-11-04T01:07:04.175Z,9.20
2023-11-04T01:09:32.550Z,9.20
2023-11-04T01:12:00.973Z,9.10
2023-11-04T01:14:30.712Z,9.30
2023-11-04T01:16:58.955Z,9.20
2023-11-04T01:19:27.280Z,9.20
2023-11-04T01:21:55.553Z,9.30
2023-11-04T01:24:23.798Z,9.20
2023-11-04T01:26:54.054Z,9.10
2023-11-04T01:29:22.689Z,9.10
2023-11-04T01:31:52.311Z,9.10
2023-11-04T01:34:20.733Z,9.00
2023-11-04T01:36:49.155Z,9.10
2023-11-04T01:39:19.084Z,9.10
2023-11-04T01:41:47.614Z,9.00
2023-11-04T01:44:16.179Z,9.00
2023-11-04T01:46:44.884Z,8.90
2023-11-04T01:49:15.072Z,9.00
2023-11-04T01:51:44.261Z,9.10
2023-11-04T01:54:12.804Z,9.00
2023-11-04T01:56:42.970Z,9.00
2023-11-04T01:59:11.326Z,9.00
2023-11-04T02:01:43.191Z,9.00
2023-11-04T02:04:11.542Z,9.00
2023-11-04T02:06:41.536Z,8.90
2023-11-04T02:09:10.036Z,8.90
2023-11-04T02:11:38.828Z,8.90
2023-11-04T02:14:09.892Z,8.90
2023-11-04T02:16:38.181Z,8.90
2023-11-04T02:19:07.360Z,8.90
2023-11-04T02:21:37.140Z,8.90
2023-11-04T02:24:05.889Z,8.70
2023-11-04T02:26:34.382Z,8.90
2023-11-04T02:29:02.596Z,8.80
2023-11-04T02:31:30.880Z,8.80
2023-11-04T02:33:59.265Z,8.80
2023-11-04T02:36:27.676Z,8.70
2023-11-04T02:38:57.459Z,8.70
2023-11-04T02:41:25.803Z,8.60
2023-11-04T02:43:54.604Z,8.70
2023-11-04T02:46:23.737Z,8.70
2023-11-04T02:48:52.211Z,8.70
2023-11-04T02:51:20.588Z,8.60
2023-11-04T02:53:48.885Z,8.60
2023-11-04T02:56:18.562Z,8.60
2023-11-04T02:58:46.992Z,8.60
2023-11-04T03:01:15.327Z,8.60
2023-11-04T03:03:43.641Z,8.70
2023-11-04T03:06:23.454Z,8.50
2023-11-04T03:08:52.656Z,8.50
2023-11-04T03:11:23.731Z,8.40
2023-11-04T03:13:52.086Z,8.40
2023-11-04T03:16:21.669Z,8.40
2023-11-04T03:18:50.713Z,8.30
2023-11-04T03:21:19.296Z,8.30
2023-11-04T03:23:48.459Z,8.20
2023-11-04T03:26:18.751Z,8.20
2023-11-04T03:28:48.392Z,8.10
2023-11-04T03:31:16.662Z,8.10
2023-11-04T03:33:44.972Z,8.10
2023-11-04T03:36:13.247Z,8.00
2023-11-04T03:38:41.594Z,8.10
2023-11-04T03:41:09.785Z,8.00
2023-11-04T03:43:38.065Z,8.00
2023-11-04T03:46:08.827Z,8.00
2023-11-04T03:48:38.424Z,7.90
2023-11-04T03:51:08.371Z,7.90
2023-11-04T03:53:37.866Z,7.90
2023-11-04T03:56:07.486Z,7.90
2023-11-04T03:58:35.742Z,7.90
2023-11-04T04:01:04.559Z,7.80
2023-11-04T04:03:34.657Z,7.80
2023-11-04T04:06:03.099Z,7.80
2023-11-04T04:08:31.312Z,7.90
2023-11-04T04:11:00.696Z,7.80
2023-11-04T04:13:29.022Z,7.70
2023-11-04T04:15:56.562Z,7.60
2023-11-04T04:18:24.946Z,7.60
2023-11-04T04:20:54.790Z,7.60
2023-11-04T04:23:23.014Z,7.70
2023-11-04T04:25:51.523Z,7.70
2023-11-04T04:28:19.818Z,7.80
2023-11-04T04:30:48.180Z,7.60
2023-11-04T04:33:17.122Z,7.70
2023-11-04T04:35:45.614Z,7.70
2023-11-04T04:38:15.297Z,7.70
2023-11-04T04:40:43.662Z,7.60
2023-11-04T04:43:11.998Z,7.50
2023-11-04T04:45:40.302Z,7.50
2023-11-04T04:48:08.548Z,7.50
2023-11-04T04:50:37.093Z,7.40
2023-11-04T04:53:05.440Z,7.40
2023-11-04T04:55:35.092Z,7.40
2023-11-04T04:58:03.384Z,7.40
2023-11-04T05:00:31.693Z,7.30
2023-11-04T05:03:00.906Z,7.20
2023-11-04T05:05:29.283Z,7.20
2023-11-04T05:07:57.601Z,7.10
2023-11-04T05:10:25.844Z,7.20
2023-11-04T05:12:55.576Z,7.10
2023-11-04T05:15:24.048Z,7.10
2023-11-04T05:17:52.407Z,7.10
2023-11-04T05:20:20.796Z,7.10
2023-11-04T05:22:49.240Z,7.10
2023-11-04T05:25:17.496Z,7.10
2023-11-04T05:27:47.773Z,7.10
2023-11-04T05:30:17.450Z,7.00
2023-11-04T05:32:45.751Z,7.00
2023-11-04T05:35:14.157Z,6.80
2023-11-04T05:37:43.696Z,6.90
2023-11-04T05:40:12.825Z,6.90
2023-11-04T05:42:41.159Z,6.80
2023-11-04T05:45:09.994Z,6.90
2023-11-04T05:47:39.669Z,6.80
2023-11-04T05:50:08.536Z,6.80
2023-11-04T05:52:36.864Z,6.80
2023-11-04T05:55:05.911Z,6.80
2023-11-04T05:57:35.595Z,6.70
2023-11-04T06:00:08.934Z,6.70
2023-11-04T06:02:38.225Z,6.70
2023-11-04T06:05:09.496Z,6.70
2023-11-04T06:07:38.857Z,6.60
2023-11-04T06:10:09.677Z,6.70
2023-11-04T06:12:38.449Z,6.60
2023-11-04T06:15:08.384Z,6.60
2023-11-04T06:17:36.834Z,6.60
2023-11-04T06:20:07.900Z,6.60
2023-11-04T06:22:36.093Z,6.60
2023-11-04T06:25:06.665Z,6.50
2023-11-04T06:27:36.863Z,6.50
2023-11-04T06:30:06.582Z,6.50
2023-11-04T06:32:35.385Z,6.60
2023-11-04T06:35:04.125Z,6.50
2023-11-04T06:37:33.909Z,6.60
2023-11-04T06:40:02.379Z,6.60
2023-11-04T06:42:30.869Z,6.70
2023-11-04T06:44:59.382Z,6.70
2023-11-04T06:47:27.788Z,6.80
2023-11-04T06:49:56.361Z,6.70
2023-11-04T06:52:24.644Z,6.90
2023-11-04T06:54:54.505Z,6.90
2023-11-04T06:57:22.852Z,7.00
2023-11-04T06:59:51.068Z,7.00
2023-11-04T07:02:21.180Z,7.10
2023-11-04T07:04:49.465Z,7.30
2023-11-04T07:07:17.863Z,7.40
2023-11-04T07:09:46.271Z,7.40
2023-11-04T07:12:16.161Z,7.40
2023-11-04T07:14:44.384Z,7.50
2023-11-04T07:17:12.871Z,7.50
2023-11-04T07:19:41.117Z,7.60
2023-11-04T07:22:10.687Z,7.70
2023-11-04T07:24:39.217Z,7.70
2023-11-04T07:27:07.706Z,7.90
2023-11-04T07:29:37.416Z,7.80
2023-11-04T07:32:06.930Z,7.90
2023-11-04T07:34:35.576Z,8.10
2023-11-04T07:37:04.110Z,8.20
2023-11-04T07:39:32.786Z,8.30
2023-11-04T07:42:01.167Z,8.20
2023-11-04T07:44:29.655Z,8.50
2023-11-04T07:47:01.226Z,8.60
2023-11-04T07:49:29.728Z,8.60
2023-11-04T07:51:58.012Z,8.70
2023-11-04T07:54:26.767Z,8.60
2023-11-04T07:56:54.992Z,8.60
2023-11-04T07:59:23.304Z,8.50
2023-11-04T08:01:51.505Z,8.60
2023-11-04T08:04:21.284Z,8.70
2023-11-04T08:06:49.697Z,8.80
2023-11-04T08:09:19.452Z,8.80
2023-11-04T08:11:47.642Z,8.90
2023-11-04T08:14:16.119Z,8.90
2023-11-04T08:16:44.371Z,9.00
2023-11-04T08:19:12.893Z,9.00
2023-11-04T08:21:44.123Z,9.10
2023-11-04T08:24:12.773Z,9.30
2023-11-04T08:26:41.299Z,9.30
2023-11-04T08:29:09.603Z,9.50
2023-11-04T08:31:37.854Z,9.40
2023-11-04T08:34:06.439Z,9.50
2023-11-04T08:36:35.545Z,9.60
2023-11-04T08:39:08.077Z,9.60
2023-11-04T08:41:36.352Z,9.60
2023-11-04T08:44:05.098Z,9.70
2023-11-04T08:46:33.307Z,9.50
2023-11-04T08:49:01.853Z,9.70
2023-11-04T08:51:30.179Z,9.70
2023-11-04T08:53:58.401Z,9.80
2023-11-04T08:56:28.307Z,9.60
2023-11-04T08:58:56.762Z,9.70
2023-11-04T09:01:26.352Z,9.80
2023-11-04T09:04:03.154Z,9.90
2023-11-04T09:06:33.794Z,9.80
2023-11-04T09:09:02.518Z,9.80
2023-11-04T09:11:32.384Z,9.90
2023-11-04T09:14:00.649Z,9.80
2023-11-04T09:16:29.072Z,9.80
2023-11-04T09:18:57.373Z,9.90
2023-11-04T09:21:25.643Z,10.00
2023-11-04T09:23:54.329Z,10.00
2023-11-04T09:26:22.750Z,10.10
2023-11-04T09:28:52.393Z,10.20
2023-11-04T09:31:20.703Z,10.20
2023-11-04T09:33:49.085Z,10.30
2023-11-04T09:36:19.395Z,10.20
2023-11-04T09:38:48.262Z,10.20
2023-11-04T09:41:16.650Z,10.30
2023-11-04T09:43:44.916Z,10.40
2023-11-04T09:46:14.552Z,10.50
2023-11-04T09:48:45.089Z,10.40
2023-11-04T09:51:14.819Z,10.30
2023-11-04T09:53:54.326Z,10.30
2023-11-04T09:56:23.906Z,10.40
2023-11-04T09:58:52.516Z,10.40
2023-11-04T10:01:22.325Z,10.40
2023-11-04T10:03:51.637Z,10.50
2023-11-04T10:06:20.056Z,10.50
2023-11-04T10:08:48.592Z,10.50
2023-11-04T10:11:16.946Z,10.50
2023-11-04T10:13:45.257Z,10.50
2023-11-04T10:16:14.322Z,10.60
2023-11-04T10:18:44.292Z,10.60
2023-11-04T10:21:12.963Z,10.60
2023-11-04T10:23:41.179Z,10.60
2023-11-04T10:26:09.770Z,10.70
2023-11-04T10:28:40.561Z,10.70
2023-11-04T10:31:09.406Z,10.70
2023-11-04T10:33:39.411Z,10.60
2023-11-04T10:36:12.441Z,10.60
2023-11-04T10:38:48.390Z,10.60
2023-11-04T10:41:20.749Z,10.60
2023-11-04T10:44:00.752Z,10.70
2023-11-04T10:46:41.383Z,10.70
2023-11-04T10:49:21.466Z,10.90
2023-11-04T10:52:00.635Z,10.90
2023-11-04T10:54:41.381Z,10.90
2023-11-04T10:57:22.362Z,11.00
2023-11-04T11:00:09.236Z,11.20
2023-11-04T11:02:41.321Z,11.10
2023-11-04T11:05:12.280Z,11.20
2023-11-04T11:07:44.403Z,11.10
2023-11-04T11:10:16.278Z,11.30
2023-11-04T11:12:51.863Z,11.20
2023-11-04T11:15:21.946Z,11.30
2023-11-04T11:17:58.921Z,11.30
2023-11-04T11:20:30.729Z,11.50
2023-11-04T11:23:04.340Z,11.50
2023-11-04T11:25:44.692Z,11.50
2023-11-04T11:28:24.636Z,11.70
2023-11-04T11:30:56.875Z,11.60
2023-11-04T11:33:30.271Z,11.60
2023-11-04T11:36:01.573Z,11.60
2023-11-04T11:38:33.367Z,11.40
2023-11-04T11:41:06.648Z,11.50
2023-11-04T11:43:35.938Z,11.50
2023-11-04T11:46:06.537Z,11.60
2023-11-04T11:48:40.621Z,11.50
2023-11-04T11:51:12.522Z,11.40
2023-11-04T11:53:45.286Z,11.30
2023-11-04T11:56:14.424Z,11.20
2023-11-04T11:58:44.029Z,11.30
2023-11-04T12:01:12.738Z,11.50
2023-11-04T12:03:41.409Z,11.60
2023-11-04T12:06:12.784Z,11.90
2023-11-04T12:08:42.470Z,11.90
2023-11-04T12:11:11.019Z,12.00
2023-11-04T12:13:39.358Z,11.90
2023-11-04T12:16:10.336Z,11.90
2023-11-04T12:18:39.045Z,11.90
2023-11-04T12:21:11.435Z,11.80
2023-11-04T12:23:41.568Z,11.80
2023-11-04T12:26:10.051Z,11.70
2023-11-04T12:28:40.484Z,11.60
2023-11-04T12:31:09.275Z,11.70
2023-11-04T12:33:38.900Z,11.80
2023-11-04T12:36:13.121Z,11.70
2023-11-04T12:38:46.105Z,11.90
2023-11-04T12:41:16.866Z,11.80
2023-11-04T12:43:45.920Z,11.70
2023-11-04T12:46:15.628Z,11.90
2023-11-04T12:48:45.858Z,11.80
2023-11-04T12:51:14.930Z,12.00
2023-11-04T12:53:44.756Z,12.10
2023-11-04T12:56:12.994Z,12.00
2023-11-04T12:58:41.261Z,12.00
2023-11-04T13:01:09.626Z,12.00
2023-11-04T13:03:39.275Z,12.10
2023-11-04T13:06:09.261Z,12.30
2023-11-04T13:08:37.617Z,12.20
2023-11-04T13:11:07.573Z,12.20
2023-11-04T13:13:35.798Z,12.10
2023-11-04T13:16:04.380Z,12.40
2023-11-04T13:18:32.946Z,12.50
2023-11-04T13:21:01.253Z,12.40
2023-11-04T13:23:29.464Z,12.40
2023-11-04T13:25:57.682Z,12.70
2023-11-04T13:28:27.280Z,12.60
2023-11-04T13:30:55.683Z,12.60
2023-11-04T13:33:24.023Z,12.10
2023-11-04T13:35:52.369Z,11.80
2023-11-04T13:38:21.965Z,11.70
2023-11-04T13:40:50.632Z,11.60
2023-11-04T13:43:19.098Z,11.80
2023-11-04T13:45:48.756Z,11.90
2023-11-04T13:48:17.354Z,11.60
2023-11-04T13:50:45.550Z,11.60
2023-11-04T13:53:13.772Z,11.50
2023-11-04T13:55:42.033Z,11.50
2023-11-04T13:58:10.396Z,11.40
2023-11-04T14:00:40.024Z,11.40
2023-11-04T14:03:10.117Z,11.30
2023-11-04T14:05:38.564Z,11.30
2023-11-04T14:08:06.927Z,11.20
2023-11-04T14:10:35.217Z,11.20
2023-11-04T14:13:03.513Z,11.20
2023-11-04T14:15:31.963Z,11.00
2023-11-04T14:18:00.256Z,10.80
2023-11-04T14:20:33.148Z,11.00
2023-11-04T14:23:01.408Z,11.00
2023-11-04T14:25:29.590Z,11.00
2023-11-04T14:27:57.944Z,10.90
2023-11-04T14:30:26.259Z,10.90
2023-11-04T14:32:54.666Z,10.90
2023-11-04T14:35:23.987Z,11.00
2023-11-04T14:37:53.668Z,10.90
2023-11-04T14:40:22.051Z,10.80
2023-11-04T14:42:50.497Z,10.70
2023-11-04T14:45:19.505Z,10.70
2023-11-04T14:47:47.890Z,10.70
2023-11-04T14:50:16.192Z,10.90
2023-11-04T14:52:44.487Z,10.70
2023-11-04T14:55:14.184Z,10.60
2023-11-04T14:57:45.520Z,10.50
2023-11-04T15:00:15.568Z,10.60
2023-11-04T15:02:43.798Z,10.40
2023-11-04T15:05:12.176Z,10.20
2023-11-04T15:07:40.680Z,10.20
2023-11-04T15:10:09.989Z,10.10
2023-11-04T15:12:50.803Z,10.10
2023-11-04T15:15:19.445Z,10.20
2023-11-04T15:17:50.296Z,10.20
2023-11-04T15:20:18.506Z,10.30
2023-11-04T15:22:46.801Z,10.20
2023-11-04T15:25:15.106Z,10.10
2023-11-04T15:27:45.008Z,10.10
2023-11-04T15:30:14.788Z,10.10
2023-11-04T15:32:43.761Z,10.10
2023-11-04T15:35:12.117Z,10.00
2023-11-04T15:37:40.645Z,9.90
2023-11-04T15:40:10.723Z,9.90
2023-11-04T15:42:39.655Z,9.60
2023-11-04T15:45:10.400Z,9.60
2023-11-04T15:47:40.599Z,9.60
2023-11-04T15:50:09.641Z,9.40
2023-11-04T15:52:37.976Z,9.40
2023-11-04T15:55:07.032Z,9.40
2023-11-04T15:57:36.294Z,9.30
2023-11-04T16:00:06.908Z,9.30
2023-11-04T16:02:37.946Z,9.20
2023-11-04T16:05:07.351Z,9.10
2023-11-04T16:07:38.915Z,9.00
2023-11-04T16:10:12.480Z,9.00
2023-11-04T16:12:41.677Z,9.00
2023-11-04T16:15:10.816Z,9.00
2023-11-04T16:17:40.701Z,9.00
2023-11-04T16:20:11.393Z,8.80
2023-11-04T16:22:39.928Z,8.80
2023-11-04T16:25:09.161Z,8.70
2023-11-04T16:27:37.483Z,8.70
2023-11-04T16:30:07.088Z,8.70
2023-11-04T16:32:35.696Z,8.60
2023-11-04T16:35:06.714Z,8.60
2023-11-04T16:37:35.234Z,8.50
2023-11-04T16:40:05.125Z,8.60
2023-11-04T16:42:34.181Z,8.50
2023-11-04T16:45:02.617Z,8.50
2023-11-04T16:47:30.911Z,8.40
2023-11-04T16:49:59.230Z,8.30
2023-11-04T16:52:28.927Z,8.30
2023-11-04T16:54:57.970Z,8.40
2023-11-04T16:57:26.265Z,8.40
2023-11-04T16:59:54.499Z,8.30
2023-11-04T17:02:22.881Z,8.30
2023-11-04T17:04:51.590Z,8.30
2023-11-04T17:07:20.506Z,8.30
2023-11-04T17:09:51.222Z,8.40
2023-11-04T17:12:19.763Z,8.30
2023-11-04T17:14:48.059Z,8.30
2023-11-04T17:17:16.570Z,8.20
2023-11-04T17:19:45.663Z,8.20
2023-11-04T17:22:14.032Z,8.10
2023-11-04T17:24:42.680Z,8.00
2023-11-04T17:27:12.969Z,8.10
2023-11-04T17:29:41.249Z,8.00
2023-11-04T17:32:09.772Z,8.00
2023-11-04T17:34:38.337Z,8.00
2023-11-04T17:37:06.829Z,8.00
2023-11-04T17:39:35.405Z,8.00
2023-11-04T17:42:04.086Z,8.10
2023-11-04T17:44:34.063Z,8.10
2023-11-04T17:47:02.405Z,8.00
2023-11-04T17:49:30.932Z,8.00
2023-11-04T17:51:59.424Z,7.90
2023-11-04T17:54:27.754Z,7.80
2023-11-04T17:56:56.133Z,7.80
2023-11-04T17:59:27.478Z,7.80
2023-11-04T18:01:58.684Z,8.00
2023-11-04T18:04:27.233Z,8.10
2023-11-04T18:06:56.006Z,7.90
2023-11-04T18:09:26.148Z,7.90
2023-11-04T18:11:55.200Z,7.80
2023-11-04T18:14:24.735Z,7.70
2023-11-04T18:16:52.991Z,7.80
2023-11-04T18:19:22.915Z,7.80
2023-11-04T18:21:53.471Z,7.80
2023-11-04T18:24:21.818Z,7.90
2023-11-04T18:26:50.314Z,7.80
2023-11-04T18:29:18.649Z,7.80
2023-11-04T18:31:47.460Z,7.80
2023-11-04T18:34:15.753Z,7.70
2023-11-04T18:36:46.176Z,7.80
2023-11-04T18:39:15.221Z,7.70
2023-11-04T18:41:44.656Z,7.80
2023-11-04T18:44:13.460Z,7.90
2023-11-04T18:46:41.947Z,7.90
2023-11-04T18:49:10.269Z,7.90
2023-11-04T18:51:38.589Z,7.90
2023-11-04T18:54:08.971Z,7.80
2023-11-04T18:56:37.132Z,7.80
2023-11-04T18:59:05.526Z,7.70
2023-11-04T19:01:33.804Z,7.70
2023-11-04T19:04:04.211Z,7.80
2023-11-04T19:06:32.536Z,7.80
2023-11-04T19:09:01.273Z,7.90
2023-11-04T19:11:30.851Z,7.80
2023-11-04T19:13:59.154Z,7.80
2023-11-04T19:16:27.432Z,7.80
2023-11-04T19:18:55.794Z,7.90
2023-11-04T19:21:24.255Z,7.80
2023-11-04T19:23:52.507Z,7.80
2023-11-04T19:26:20.788Z,7.70
2023-11-04T19:28:50.319Z,7.80
2023-11-04T19:31:18.699Z,7.80
2023-11-04T19:33:47.073Z,7.70
2023-11-04T19:36:15.443Z,7.70
2023-11-04T19:38:43.873Z,7.80
2023-11-04T19:41:14.055Z,7.70
2023-11-04T19:43:42.296Z,7.70
2023-11-04T19:46:12.296Z,7.60
2023-11-04T19:48:40.643Z,7.70
2023-11-04T19:51:10.291Z,7.70
2023-11-04T19:53:41.565Z,7.80
2023-11-04T19:56:12.609Z,7.70
2023-11-04T19:58:42.224Z,7.70
2023-11-04T20:01:12.321Z,7.70
2023-11-04T20:03:42.058Z,7.80
2023-11-04T20:06:10.077Z,7.90
2023-11-04T20:08:40.089Z,7.80
2023-11-04T20:11:08.627Z,7.70
2023-11-04T20:13:36.879Z,7.70
2023-11-04T20:16:06.218Z,7.70
2023-11-04T20:18:35.884Z,7.60
2023-11-04T20:21:04.507Z,7.70
2023-11-04T20:23:32.755Z,7.60
2023-11-04T20:26:01.102Z,7.60
2023-11-04T20:28:29.401Z,7.60
2023-11-04T20:30:58.202Z,7.60
2023-11-04T20:33:26.553Z,7.50
2023-11-04T20:35:56.763Z,7.50
2023-11-04T20:38:25.422Z,7.50
2023-11-04T20:40:53.629Z,7.60
2023-11-04T20:43:22.833Z,7.50
2023-11-04T20:45:51.251Z,7.60
2023-11-04T20:48:19.638Z,7.60
2023-11-04T20:50:47.936Z,7.60
2023-11-04T20:53:17.578Z,7.50
2023-11-04T20:55:45.822Z,7.60
2023-11-04T20:58:14.121Z,7.50
2023-11-04T21:00:42.447Z,7.60
2023-11-04T21:03:10.804Z,7.60
2023-11-04T21:05:40.239Z,7.60
2023-11-04T21:08:12.959Z,7.70
2023-11-04T21:10:42.755Z,7.80
2023-11-04T21:13:11.592Z,7.60
2023-11-04T21:15:40.988Z,7.70
2023-11-04T21:18:09.623Z,7.80
2023-11-04T21:20:38.004Z,7.60
2023-11-04T21:23:06.201Z,7.70
2023-11-04T21:25:35.136Z,7.70
2023-11-04T21:28:05.984Z,7.70
2023-11-04T21:30:34.437Z,7.80
2023-11-04T21:33:04.106Z,8.10
2023-11-04T21:35:32.606Z,7.80
2023-11-04T21:38:00.936Z,7.80
2023-11-04T21:40:29.332Z,7.80
2023-11-04T21:42:57.614Z,7.80
2023-11-04T21:45:28.050Z,7.80
2023-11-04T21:47:57.239Z,7.90
2023-11-04T21:50:25.695Z,7.90
2023-11-04T21:52:55.530Z,7.80
2023-11-04T21:55:24.970Z,7.90
2023-11-04T21:57:53.438Z,7.90
2023-11-04T22:00:22.162Z,8.00
2023-11-04T22:02:51.747Z,8.00
2023-11-04T22:05:20.152Z,7.90
2023-11-04T22:07:48.415Z,7.90
2023-11-04T22:10:17.206Z,7.90
2023-11-04T22:12:45.473Z,7.80
2023-11-04T22:15:13.745Z,7.70
2023-11-04T22:17:42.073Z,7.30
2023-11-04T22:20:12.855Z,7.60
2023-11-04T22:22:41.353Z,7.60
2023-11-04T22:25:09.850Z,7.60
2023-11-04T22:27:38.202Z,7.50
2023-11-04T22:30:08.229Z,7.50
2023-11-04T22:32:36.474Z,7.50
2023-11-04T22:35:05.121Z,7.40
2023-11-04T22:37:35.384Z,7.40
2023-11-04T22:40:03.799Z,7.40
2023-11-04T22:42:32.051Z,7.40
2023-11-04T22:45:00.975Z,7.40
2023-11-04T22:47:29.418Z,7.40
2023-11-04T22:49:58.257Z,7.40
2023-11-04T22:52:26.921Z,7.40
2023-11-04T22:54:56.892Z,7.30
2023-11-04T22:57:25.463Z,7.30
2023-11-04T22:59:53.666Z,7.40
2023-11-04T23:02:23.103Z,7.40
2023-11-04T23:04:51.720Z,7.60
2023-11-04T23:07:20.107Z,7.50
2023-11-04T23:09:48.340Z,7.60
2023-11-04T23:12:19.068Z,7.50
2023-11-04T23:14:47.345Z,7.60
2023-11-04T23:17:17.082Z,7.60
2023-11-04T23:19:45.287Z,7.60
2023-11-04T23:22:15.039Z,7.70
2023-11-04T23:24:43.591Z,7.70
2023-11-04T23:27:11.795Z,7.60
2023-11-04T23:29:41.899Z,7.70
2023-11-04T23:32:10.503Z,7.70
2023-11-04T23:34:38.758Z,7.70
2023-11-04T23:37:07.522Z,7.80
2023-11-04T23:39:36.373Z,7.80
2023-11-04T23:42:04.810Z,7.70
2023-11-04T23:44:33.038Z,7.60
2023-11-04T23:47:02.845Z,7.70
2023-11-04T23:49:31.075Z,7.80
2023-11-04T23:51:59.349Z,7.70
2023-11-04T23:54:27.716Z,7.70
2023-11-04T23:56:56.396Z,7.70
2023-11-04T23:59:25.150Z,7.60
